createdAt,value
2022-10-23T00:01:12.194Z,73.49
2022-10-23T00:03:39.723Z,72.76
2022-10-23T00:06:08.052Z,72.79
2022-10-23T00:08:35.418Z,76.17
2022-10-23T00:11:08.450Z,76.97
2022-10-23T00:13:36.072Z,75.19
2022-10-23T00:16:04.013Z,75.38
2022-10-23T00:18:32.092Z,74.55
2022-10-23T00:20:59.931Z,75.09
2022-10-23T00:23:27.661Z,76.34
2022-10-23T00:25:55.757Z,77.04
2022-10-23T00:28:24.577Z,76.77
2022-10-23T00:30:52.257Z,76.16
2022-10-23T00:33:19.591Z,76.34
2022-10-23T00:35:47.420Z,75.28
2022-10-23T00:38:14.747Z,74.58
2022-10-23T00:40:42.516Z,74.05
2022-10-23T00:43:17.799Z,75.61
2022-10-23T00:45:47.551Z,77.58
2022-10-23T00:48:15.740Z,80.75
2022-10-23T00:50:44.668Z,79.33
2022-10-23T00:53:14.408Z,77.50
2022-10-23T00:55:43.908Z,78.92
2022-10-23T00:58:11.305Z,79.09
2022-10-23T01:00:45.472Z,79.32
2022-10-23T01:03:15.800Z,79.33
2022-10-23T01:05:49.105Z,79.23
2022-10-23T01:08:26.944Z,80.22
2022-10-23T01:11:00.655Z,81.71
2022-10-23T01:13:37.833Z,81.48
2022-10-23T01:16:11.892Z,80.53
2022-10-23T01:18:44.805Z,78.58
2022-10-23T01:21:21.690Z,79.40
2022-10-23T01:24:04.194Z,80.37
2022-10-23T01:26:50.294Z,82.02
2022-10-23T01:29:25.359Z,83.29
2022-10-23T01:31:58.351Z,84.67
2022-10-23T01:34:31.682Z,85.59
2022-10-23T01:37:01.389Z,85.61
2022-10-23T01:39:34.183Z,85.54
2022-10-23T01:42:06.884Z,84.50
2022-10-23T01:44:42.242Z,84.36
2022-10-23T01:47:13.240Z,84.20
2022-10-23T01:49:42.638Z,83.26
2022-10-23T01:52:14.562Z,83.02
2022-10-23T01:54:44.973Z,83.02
2022-10-23T01:57:16.971Z,82.17
2022-10-23T01:59:49.579Z,82.45
2022-10-23T02:02:19.115Z,82.34
2022-10-23T02:04:51.087Z,82.88
2022-10-23T02:07:18.883Z,83.58
2022-10-23T02:09:46.165Z,84.40
2022-10-23T02:12:21.853Z,84.10
2022-10-23T02:14:54.818Z,83.74
2022-10-23T02:17:33.810Z,83.22
2022-10-23T02:20:12.922Z,82.82
2022-10-23T02:22:49.211Z,83.07
2022-10-23T02:25:23.281Z,82.72
2022-10-23T02:27:54.803Z,82.86
2022-10-23T02:30:23.693Z,82.25
2022-10-23T02:32:54.811Z,83.28
2022-10-23T02:35:24.455Z,83.23
2022-10-23T02:37:53.838Z,82.21
2022-10-23T02:40:22.807Z,81.60
2022-10-23T02:42:57.686Z,82.03
2022-10-23T02:45:36.413Z,81.63
2022-10-23T02:48:12.431Z,82.25
2022-10-23T02:50:50.089Z,82.02
2022-10-23T02:53:21.806Z,81.71
2022-10-23T02:56:01.614Z,81.33
2022-10-23T02:58:37.444Z,81.67
2022-10-23T03:01:10.907Z,81.41
2022-10-23T03:03:41.935Z,81.04
2022-10-23T03:06:10.168Z,81.67
2022-10-23T03:08:45.126Z,81.31
2022-10-23T03:11:12.585Z,81.37
2022-10-23T03:13:39.902Z,81.29
2022-10-23T03:16:09.076Z,80.96
2022-10-23T03:18:36.464Z,80.65
2022-10-23T03:21:04.343Z,80.19
2022-10-23T03:23:31.632Z,80.29
2022-10-23T03:25:59.081Z,80.24
2022-10-23T03:28:26.304Z,80.80
2022-10-23T03:30:53.998Z,80.42
2022-10-23T03:33:22.651Z,80.14
2022-10-23T03:35:50.306Z,80.77
2022-10-23T03:38:17.767Z,81.63
2022-10-23T03:40:45.333Z,80.92
2022-10-23T03:43:12.707Z,80.34
2022-10-23T03:45:40.197Z,79.70
2022-10-23T03:48:08.097Z,79.62
2022-10-23T03:50:37.218Z,79.80
2022-10-23T03:53:04.406Z,80.35
2022-10-23T03:55:32.101Z,80.61
2022-10-23T03:57:59.470Z,80.66
2022-10-23T04:00:27.128Z,79.48
2022-10-23T04:02:54.488Z,79.04
2022-10-23T04:05:22.428Z,78.73
2022-10-23T04:07:51.210Z,78.32
2022-10-23T04:10:19.368Z,77.96
2022-10-23T04:12:46.694Z,78.56
2022-10-23T04:15:14.735Z,77.97
2022-10-23T04:17:42.290Z,78.35
2022-10-23T04:20:10.452Z,77.99
2022-10-23T04:22:37.741Z,77.76
2022-10-23T04:25:07.693Z,78.28
2022-10-23T04:27:35.044Z,78.57
2022-10-23T04:30:02.708Z,78.80
2022-10-23T04:32:30.241Z,78.63
2022-10-23T04:34:57.874Z,78.93
2022-10-23T04:37:25.478Z,78.87
2022-10-23T04:39:53.123Z,80.32
2022-10-23T04:42:25.005Z,79.91
2022-10-23T04:44:52.794Z,79.51
2022-10-23T04:47:20.311Z,79.69
2022-10-23T04:49:47.982Z,80.18
2022-10-23T04:52:15.486Z,80.87
2022-10-23T04:54:42.774Z,81.21
2022-10-23T04:57:10.479Z,80.61
2022-10-23T04:59:39.155Z,81.60
2022-10-23T05:02:06.969Z,81.92
2022-10-23T05:04:34.268Z,81.34
2022-10-23T05:07:02.023Z,81.46
2022-10-23T05:09:29.357Z,81.30
2022-10-23T05:11:56.652Z,81.20
2022-10-23T05:14:24.339Z,81.48
2022-10-23T05:16:59.234Z,82.19
2022-10-23T05:19:32.967Z,82.04
2022-10-23T05:22:01.254Z,81.56
2022-10-23T05:24:29.118Z,80.96
2022-10-23T05:26:56.943Z,80.85
2022-10-23T05:29:24.649Z,80.42
2022-10-23T05:31:57.552Z,80.62
2022-10-23T05:34:28.286Z,80.10
2022-10-23T05:36:55.975Z,79.93
2022-10-23T05:39:24.103Z,80.20
2022-10-23T05:41:51.676Z,80.18
2022-10-23T05:44:19.312Z,81.02
2022-10-23T05:46:47.147Z,79.79
2022-10-23T05:49:16.027Z,79.31
2022-10-23T05:51:43.478Z,78.84
2022-10-23T05:54:11.104Z,78.81
2022-10-23T05:56:39.871Z,78.68
2022-10-23T05:59:08.008Z,78.02
2022-10-23T06:01:36.624Z,77.86
2022-10-23T06:04:05.400Z,78.28
2022-10-23T06:06:34.167Z,78.68
2022-10-23T06:09:01.952Z,79.20
2022-10-23T06:11:29.112Z,77.35
2022-10-23T06:16:24.979Z,78.71
2022-10-23T06:18:53.059Z,79.56
2022-10-23T06:21:20.596Z,79.42
2022-10-23T06:23:49.526Z,79.34
2022-10-23T06:26:18.902Z,79.04
2022-10-23T06:28:46.750Z,78.65
2022-10-23T06:31:15.669Z,79.28
2022-10-23T06:33:43.358Z,79.19
2022-10-23T06:36:10.866Z,79.56
2022-10-23T06:38:38.771Z,79.70
2022-10-23T06:41:11.988Z,80.02
2022-10-23T06:43:39.786Z,79.54
2022-10-23T06:46:07.238Z,79.65
2022-10-23T06:48:35.101Z,79.95
2022-10-23T06:51:06.189Z,79.74
2022-10-23T06:53:33.715Z,79.88
2022-10-23T06:56:02.115Z,79.06
2022-10-23T06:58:31.541Z,78.28
2022-10-23T07:01:01.092Z,77.85
2022-10-23T07:03:28.667Z,77.12
2022-10-23T07:05:56.242Z,75.45
2022-10-23T07:08:23.471Z,74.19
2022-10-23T07:10:51.075Z,73.75
2022-10-23T07:13:18.558Z,74.45
2022-10-23T07:15:48.127Z,73.05
2022-10-23T07:18:15.528Z,72.78
2022-10-23T07:20:43.759Z,71.77
2022-10-23T07:23:12.007Z,71.27
2022-10-23T07:25:39.961Z,70.98
2022-10-23T07:28:07.279Z,72.02
2022-10-23T07:30:35.061Z,72.55
2022-10-23T07:33:04.019Z,70.92
2022-10-23T07:35:34.263Z,71.93
2022-10-23T07:38:04.479Z,72.43
2022-10-23T07:43:17.585Z,71.30
2022-10-23T07:45:47.833Z,71.71
2022-10-23T07:48:16.839Z,73.16
2022-10-23T07:50:44.487Z,72.81
2022-10-23T07:53:16.845Z,73.84
2022-10-23T07:58:30.967Z,75.03
2022-10-23T08:01:01.517Z,74.64
2022-10-23T08:03:33.069Z,74.10
2022-10-23T08:06:00.805Z,74.91
2022-10-23T08:08:28.169Z,73.01
2022-10-23T08:10:55.939Z,72.94
2022-10-23T08:13:23.703Z,73.44
2022-10-23T08:15:52.725Z,71.92
2022-10-23T08:18:20.641Z,71.04
2022-10-23T08:20:50.134Z,69.36
2022-10-23T08:23:18.812Z,70.02
2022-10-23T08:25:47.617Z,70.46
2022-10-23T08:28:15.758Z,69.38
2022-10-23T08:30:44.069Z,67.62
2022-10-23T08:33:35.710Z,69.36
2022-10-23T08:36:08.428Z,67.40
2022-10-23T08:38:45.296Z,66.77
2022-10-23T08:41:25.699Z,67.63
2022-10-23T08:43:57.718Z,67.03
2022-10-23T08:46:30.051Z,67.63
2022-10-23T08:49:07.707Z,68.13
2022-10-23T08:51:41.787Z,68.60
2022-10-23T08:54:15.788Z,68.48
2022-10-23T08:56:48.732Z,68.21
2022-10-23T08:59:20.438Z,67.15
2022-10-23T09:01:49.659Z,69.04
2022-10-23T09:04:17.122Z,65.89
2022-10-23T09:06:54.663Z,67.14
2022-10-23T09:09:42.789Z,66.44
2022-10-23T09:12:13.636Z,66.63
2022-10-23T09:15:00.702Z,64.45
2022-10-23T09:17:30.765Z,64.72
2022-10-23T09:20:05.470Z,65.27
2022-10-23T09:22:34.524Z,65.61
2022-10-23T09:25:01.814Z,66.00
2022-10-23T09:27:29.651Z,65.56
2022-10-23T09:29:57.104Z,65.26
2022-10-23T09:32:36.091Z,67.19
2022-10-23T09:35:04.964Z,69.65
2022-10-23T09:37:35.175Z,67.83
2022-10-23T09:40:12.439Z,67.32
2022-10-23T09:42:51.502Z,66.34
2022-10-23T09:45:25.115Z,66.85
2022-10-23T09:48:04.236Z,67.67
2022-10-23T09:50:31.811Z,67.95
2022-10-23T09:53:02.074Z,68.62
2022-10-23T09:55:29.955Z,67.96
2022-10-23T09:57:57.836Z,67.03
2022-10-23T10:00:27.093Z,68.46
2022-10-23T10:02:57.946Z,66.91
2022-10-23T10:05:26.889Z,67.12
2022-10-23T10:07:58.510Z,67.72
2022-10-23T10:10:30.670Z,68.84
2022-10-23T10:13:02.216Z,68.68
2022-10-23T10:15:34.990Z,67.99
2022-10-23T10:18:14.676Z,68.70
2022-10-23T10:20:55.072Z,68.48
2022-10-23T10:23:31.508Z,68.37
2022-10-23T10:26:13.918Z,68.26
2022-10-23T10:28:54.289Z,69.52
2022-10-23T10:31:33.180Z,67.59
2022-10-23T10:34:11.220Z,67.69
2022-10-23T10:36:49.714Z,65.31
2022-10-23T10:39:27.813Z,66.24
2022-10-23T10:42:16.984Z,66.78
2022-10-23T10:45:00.232Z,66.49
2022-10-23T10:47:38.131Z,66.21
2022-10-23T10:50:08.865Z,66.00
2022-10-23T10:52:48.314Z,66.65
2022-10-23T10:55:23.998Z,64.14
2022-10-23T10:58:23.760Z,63.76
2022-10-23T11:00:55.275Z,64.30
2022-10-23T11:03:37.449Z,62.97
2022-10-23T11:06:15.140Z,61.80
2022-10-23T11:08:57.488Z,60.11
2022-10-23T11:11:32.320Z,60.72
2022-10-23T11:14:02.263Z,61.88
2022-10-23T11:16:33.770Z,59.16
2022-10-23T11:19:11.304Z,58.17
2022-10-23T11:21:46.668Z,55.58
2022-10-23T11:24:55.790Z,55.83
2022-10-23T11:27:48.905Z,55.88
2022-10-23T11:30:24.261Z,57.69
2022-10-23T11:33:28.809Z,55.72
2022-10-23T11:36:05.889Z,55.60
2022-10-23T11:38:35.770Z,56.54
2022-10-23T11:41:06.439Z,56.48
2022-10-23T11:43:49.263Z,55.74
2022-10-23T11:58:22.621Z,57.53
2022-10-23T12:00:58.151Z,58.45
2022-10-23T12:03:32.498Z,58.92
2022-10-23T12:06:04.807Z,59.42
2022-10-23T12:08:35.511Z,59.78
2022-10-23T12:11:03.002Z,58.87
2022-10-23T12:13:44.618Z,60.63
2022-10-23T12:16:12.712Z,59.98
2022-10-23T12:18:53.487Z,58.54
2022-10-23T12:21:22.602Z,60.15
2022-10-23T12:24:13.129Z,60.39
2022-10-23T12:27:04.498Z,60.13
2022-10-23T12:29:43.760Z,59.62
2022-10-23T12:32:33.417Z,59.39
2022-10-23T12:35:29.763Z,58.78
2022-10-23T12:38:12.787Z,58.16
2022-10-23T12:40:40.792Z,58.34
2022-10-23T12:43:23.283Z,59.12
2022-10-23T12:45:51.590Z,57.65
2022-10-23T12:48:20.531Z,56.15
2022-10-23T12:50:54.604Z,56.55
2022-10-23T12:53:23.768Z,56.84
2022-10-23T12:55:56.583Z,55.69
2022-10-23T12:58:26.327Z,56.06
2022-10-23T13:00:56.381Z,55.44
2022-10-23T13:03:26.084Z,55.02
2022-10-23T13:05:56.870Z,55.74
2022-10-23T13:08:31.644Z,53.55
2022-10-23T13:11:00.029Z,53.09
2022-10-23T13:13:28.013Z,53.31
2022-10-23T13:15:55.778Z,54.31
2022-10-23T13:18:23.141Z,54.80
2022-10-23T13:23:31.443Z,55.10
2022-10-23T13:26:00.673Z,56.00
2022-10-23T13:28:29.819Z,55.34
2022-10-23T13:31:01.817Z,55.68
2022-10-23T13:33:33.886Z,56.73
2022-10-23T13:36:06.592Z,57.50
2022-10-23T13:38:35.853Z,58.78
2022-10-23T13:41:05.660Z,58.29
2022-10-23T13:43:34.560Z,58.86
2022-10-23T13:46:02.655Z,59.15
2022-10-23T13:48:30.321Z,58.74
2022-10-23T13:51:10.453Z,59.34
2022-10-23T13:53:37.930Z,59.69
2022-10-23T13:56:06.403Z,60.44
2022-10-23T13:58:34.051Z,58.97
2022-10-23T14:01:02.286Z,58.91
2022-10-23T14:03:30.137Z,59.12
2022-10-23T14:05:58.065Z,58.75
2022-10-23T14:08:26.770Z,59.15
2022-10-23T14:10:54.523Z,58.78
2022-10-23T14:13:21.922Z,58.61
2022-10-23T14:15:53.880Z,58.87
2022-10-23T14:18:21.837Z,58.57
2022-10-23T14:20:49.545Z,59.31
2022-10-23T14:23:16.987Z,59.33
2022-10-23T14:25:46.342Z,60.45
2022-10-23T14:28:13.980Z,60.13
2022-10-23T14:30:42.305Z,59.95
2022-10-23T14:33:09.802Z,60.63
2022-10-23T14:35:39.640Z,61.11
2022-10-23T14:38:07.138Z,61.22
2022-10-23T14:40:38.007Z,60.40
2022-10-23T14:43:06.923Z,61.14
2022-10-23T14:45:34.871Z,62.21
2022-10-23T14:48:02.408Z,62.68
2022-10-23T14:50:34.818Z,63.05
2022-10-23T14:53:02.461Z,64.08
2022-10-23T14:55:30.860Z,63.63
2022-10-23T14:57:58.247Z,64.08
2022-10-23T15:00:27.895Z,64.36
2022-10-23T15:02:55.317Z,64.12
2022-10-23T15:05:23.234Z,63.76
2022-10-23T15:07:50.655Z,62.99
2022-10-23T15:10:18.698Z,63.30
2022-10-23T15:12:46.420Z,62.79
2022-10-23T15:15:14.341Z,62.57
2022-10-23T15:17:43.109Z,62.05
2022-10-23T15:20:13.605Z,61.95
2022-10-23T15:22:41.382Z,62.65
2022-10-23T15:25:17.971Z,62.63
2022-10-23T15:27:45.706Z,63.79
2022-10-23T15:30:14.107Z,64.54
2022-10-23T15:32:42.914Z,65.35
2022-10-23T15:35:10.639Z,65.80
2022-10-23T15:37:37.981Z,64.92
2022-10-23T15:40:06.464Z,64.39
2022-10-23T15:42:33.858Z,64.16
2022-10-23T15:45:01.562Z,63.66
2022-10-23T15:47:29.358Z,63.68
2022-10-23T15:49:58.683Z,62.77
2022-10-23T15:52:26.164Z,63.35
2022-10-23T15:54:54.077Z,63.59
2022-10-23T15:57:21.384Z,63.38
2022-10-23T15:59:49.374Z,63.34
2022-10-23T16:02:16.903Z,63.66
2022-10-23T16:04:44.772Z,65.74
2022-10-23T16:07:13.598Z,65.74
2022-10-23T16:09:41.484Z,65.51
2022-10-23T16:12:09.422Z,64.65
2022-10-23T16:14:38.768Z,66.01
2022-10-23T16:17:06.360Z,66.27
2022-10-23T16:19:34.731Z,67.96
2022-10-23T16:22:02.464Z,69.42
2022-10-23T16:24:32.158Z,68.99
2022-10-23T16:26:59.594Z,69.44
2022-10-23T16:29:28.015Z,70.26
2022-10-23T16:31:57.136Z,69.19
2022-10-23T16:34:24.822Z,68.73
2022-10-23T16:36:52.293Z,68.37
2022-10-23T16:39:20.961Z,67.39
2022-10-23T16:41:49.726Z,68.47
2022-10-23T16:44:17.939Z,68.68
2022-10-23T16:46:45.368Z,69.86
2022-10-23T16:49:13.350Z,68.80
2022-10-23T16:51:40.738Z,65.92
2022-10-23T16:54:09.466Z,65.60
2022-10-23T16:56:36.875Z,66.27
2022-10-23T16:59:05.987Z,68.63
2022-10-23T17:01:33.721Z,69.17
2022-10-23T17:04:07.025Z,70.47
2022-10-23T17:06:34.710Z,71.46
2022-10-23T17:09:04.408Z,70.02
2022-10-23T17:11:33.816Z,69.18
2022-10-23T17:14:03.097Z,68.40
2022-10-23T17:16:34.041Z,68.86
2022-10-23T17:19:02.532Z,69.61
2022-10-23T17:21:33.335Z,71.02
2022-10-23T17:26:31.018Z,70.72
2022-10-23T17:28:59.949Z,65.72
2022-10-23T17:31:29.749Z,65.37
2022-10-23T17:34:02.090Z,68.94
2022-10-23T17:36:31.733Z,68.16
2022-10-23T17:38:59.832Z,69.83
2022-10-23T17:41:27.704Z,71.54
2022-10-23T17:43:56.709Z,70.58
2022-10-23T17:46:24.940Z,72.54
2022-10-23T17:48:53.025Z,73.27
2022-10-23T17:51:23.627Z,75.57
2022-10-23T17:53:52.927Z,76.01
2022-10-23T17:56:22.118Z,72.48
2022-10-23T17:58:50.715Z,74.15
2022-10-23T18:01:20.641Z,76.06
2022-10-23T18:03:48.559Z,76.92
2022-10-23T18:06:18.453Z,79.23
2022-10-23T18:08:48.206Z,78.41
2022-10-23T18:11:16.480Z,73.95
2022-10-23T18:13:45.030Z,72.67
2022-10-23T18:16:13.069Z,72.64
2022-10-23T18:18:42.415Z,72.40
2022-10-23T18:21:10.555Z,73.47
2022-10-23T18:23:38.239Z,72.40
2022-10-23T18:26:13.321Z,70.93
2022-10-23T18:28:41.039Z,71.86
2022-10-23T18:31:08.791Z,75.08
2022-10-23T18:33:36.495Z,76.05
2022-10-23T18:36:12.007Z,77.66
2022-10-23T18:38:39.785Z,78.34
2022-10-23T18:41:09.059Z,79.92
2022-10-23T18:43:43.704Z,81.43
2022-10-23T18:46:11.788Z,80.75
2022-10-23T18:48:39.985Z,80.26
2022-10-23T18:51:15.679Z,80.37
2022-10-23T18:53:44.483Z,80.05
2022-10-23T18:56:13.718Z,79.95
2022-10-23T18:58:42.097Z,80.18
2022-10-23T19:01:09.775Z,78.88
2022-10-23T19:03:37.741Z,77.61
2022-10-23T19:06:06.341Z,77.30
2022-10-23T19:08:36.160Z,76.31
2022-10-23T19:11:04.240Z,75.46
2022-10-23T19:13:36.502Z,74.50
2022-10-23T19:16:08.773Z,73.85
2022-10-23T19:18:40.620Z,75.07
2022-10-23T19:21:08.154Z,72.37
2022-10-23T19:23:37.559Z,73.57
2022-10-23T19:26:05.934Z,75.18
2022-10-23T19:28:37.682Z,74.36
2022-10-23T19:31:06.664Z,74.35
2022-10-23T19:33:36.596Z,75.21
2022-10-23T19:36:05.413Z,76.78
2022-10-23T19:38:33.663Z,77.78
2022-10-23T19:41:01.246Z,77.90
2022-10-23T19:43:28.890Z,78.35
2022-10-23T19:46:01.048Z,76.83
2022-10-23T19:48:28.827Z,76.54
2022-10-23T19:50:56.217Z,77.06
2022-10-23T19:53:24.115Z,76.75
2022-10-23T19:55:51.691Z,76.83
2022-10-23T19:58:19.510Z,77.60
2022-10-23T20:00:47.998Z,79.11
2022-10-23T20:03:17.596Z,80.41
2022-10-23T20:05:45.175Z,81.41
2022-10-23T20:08:13.040Z,81.78
2022-10-23T20:10:41.406Z,82.53
2022-10-23T20:13:19.340Z,82.60
2022-10-23T20:15:47.628Z,82.05
2022-10-23T20:18:16.821Z,81.42
2022-10-23T20:20:44.333Z,81.27
2022-10-23T20:23:12.105Z,80.54
2022-10-23T20:25:39.615Z,80.44
2022-10-23T20:28:10.202Z,80.35
2022-10-23T20:30:41.286Z,80.53
2022-10-23T20:33:09.174Z,80.03
2022-10-23T20:35:42.167Z,79.41
2022-10-23T20:38:10.225Z,78.44
2022-10-23T20:40:37.679Z,77.92
2022-10-23T20:43:05.421Z,77.66
2022-10-23T20:45:32.813Z,77.24
2022-10-23T20:48:01.074Z,77.80
2022-10-23T20:50:28.373Z,77.87
2022-10-23T20:52:57.685Z,77.90
2022-10-23T20:55:25.371Z,77.73
2022-10-23T20:57:53.532Z,78.26
2022-10-23T21:00:21.117Z,78.45
2022-10-23T21:02:51.338Z,78.18
2022-10-23T21:05:19.860Z,78.37
2022-10-23T21:07:48.931Z,77.71
2022-10-23T21:10:17.730Z,78.01
2022-10-23T21:12:45.590Z,78.31
2022-10-23T21:15:13.168Z,78.25
2022-10-23T21:17:40.862Z,78.08
2022-10-23T21:20:09.273Z,78.23
2022-10-23T21:22:36.896Z,78.30
2022-10-23T21:25:04.773Z,78.02
2022-10-23T21:27:33.736Z,78.75
2022-10-23T21:30:01.097Z,78.62
2022-10-23T21:32:28.715Z,78.46
2022-10-23T21:34:56.321Z,78.49
2022-10-23T21:37:24.026Z,78.34
2022-10-23T21:39:51.371Z,78.19
2022-10-23T21:42:19.281Z,78.12
2022-10-23T21:44:48.077Z,78.22
2022-10-23T21:47:16.730Z,78.10
2022-10-23T21:49:44.236Z,78.13
2022-10-23T21:52:13.981Z,77.54
2022-10-23T21:54:43.932Z,78.41
2022-10-23T21:57:13.195Z,78.55
2022-10-23T21:59:40.606Z,78.49
2022-10-23T22:02:10.036Z,78.64
2022-10-23T22:04:39.432Z,78.73
2022-10-23T22:07:07.866Z,78.48
2022-10-23T22:09:35.267Z,78.13
2022-10-23T22:12:03.043Z,78.25
2022-10-23T22:14:30.867Z,77.94
2022-10-23T22:16:58.658Z,77.67
2022-10-23T22:19:27.605Z,77.65
2022-10-23T22:21:55.467Z,77.81
2022-10-23T22:24:23.304Z,77.52
2022-10-23T22:26:53.587Z,78.23
2022-10-23T22:29:22.548Z,78.28
2022-10-23T22:31:50.336Z,77.63
2022-10-23T22:34:34.822Z,78.22
2022-10-23T22:37:12.359Z,78.77
2022-10-23T22:39:40.151Z,78.39
2022-10-23T22:42:08.007Z,78.93
2022-10-23T22:44:35.469Z,79.21
2022-10-23T22:47:03.359Z,79.68
2022-10-23T22:49:30.645Z,79.29
2022-10-23T22:51:58.478Z,79.12
2022-10-23T22:54:27.399Z,78.20
2022-10-23T22:56:55.230Z,77.77
2022-10-23T22:59:22.497Z,77.86
2022-10-23T23:01:50.612Z,78.50
2022-10-23T23:04:37.761Z,78.04
2022-10-23T23:07:06.418Z,77.77
2022-10-23T23:09:37.659Z,78.28
2022-10-23T23:12:05.618Z,78.38
2022-10-23T23:14:32.936Z,77.99
2022-10-23T23:17:00.764Z,78.05
2022-10-23T23:19:28.109Z,78.67
2022-10-23T23:21:56.938Z,78.77
2022-10-23T23:24:24.369Z,78.26
2022-10-23T23:26:53.480Z,78.65
2022-10-23T23:29:20.811Z,78.72
2022-10-23T23:31:48.331Z,78.48
2022-10-23T23:34:15.648Z,78.66
2022-10-23T23:36:43.484Z,78.72
2022-10-23T23:39:10.960Z,78.41
2022-10-23T23:41:39.213Z,77.76
2022-10-23T23:44:07.799Z,77.25
2022-10-23T23:46:35.449Z,76.27
2022-10-23T23:49:02.781Z,75.94
2022-10-23T23:51:30.651Z,76.50
2022-10-23T23:53:57.928Z,77.08
2022-10-23T23:56:25.539Z,77.12
2022-10-23T23:58:52.791Z,76.67
